sensor_id;sensor_type;location;lat;lon;timestamp;noise_LAeq;noise_LA_min;noise_LA_max;noise_LA01;noise_LA95
75037;Laerm;64247;51.540;5.854;2023-05-29T12:44:30;54.28;44.45;81.91;;
75037;Laerm;64247;51.540;5.854;2023-05-29T12:46:56;53.23;45.60;74.01;;
75037;Laerm;64247;51.540;5.854;2023-05-29T12:48:56;55.14;45.81;66.31;;
75037;Laerm;64247;51.540;5.854;2023-05-29T12:50:57;55.33;46.22;69.51;;
75037;Laerm;64247;51.540;5.854;2023-05-29T12:53:08;55.69;46.00;71.98;;
75037;Laerm;64247;51.540;5.854;2023-05-29T12:55:09;51.70;45.67;63.68;;
75037;Laerm;64247;51.540;5.854;2023-05-29T12:57:10;49.67;44.50;66.26;;
75037;Laerm;64247;51.540;5.854;2023-05-29T12:59:12;47.87;44.80;58.96;;
75037;Laerm;64247;51.540;5.854;2023-05-29T13:01:13;49.66;44.27;65.04;;
75037;Laerm;64247;51.540;5.854;2023-05-29T13:03:16;48.77;44.26;63.69;;
75037;Laerm;64247;51.540;5.854;2023-05-29T13:05:18;50.16;44.28;64.79;;
75037;Laerm;64247;51.540;5.854;2023-05-29T13:07:19;53.51;45.87;66.73;;
75037;Laerm;64247;51.540;5.854;2023-05-29T13:09:20;53.21;45.65;67.00;;
75037;Laerm;64247;51.540;5.854;2023-05-29T13:11:21;49.79;45.35;64.73;;
75037;Laerm;64247;51.540;5.854;2023-05-29T13:13:22;55.93;46.25;66.39;;
75037;Laerm;64247;51.540;5.854;2023-05-29T13:15:24;54.43;46.07;70.51;;
75037;Laerm;64247;51.540;5.854;2023-05-29T13:17:25;53.64;46.65;68.43;;
75037;Laerm;64247;51.540;5.854;2023-05-29T13:19:26;52.08;45.52;65.07;;
75037;Laerm;64247;51.540;5.854;2023-05-29T13:21:27;52.87;45.06;69.56;;
75037;Laerm;64247;51.540;5.854;2023-05-29T13:23:28;50.98;45.03;63.96;;
75037;Laerm;64247;51.540;5.854;2023-05-29T13:25:28;50.60;45.56;62.43;;
75037;Laerm;64247;51.540;5.854;2023-05-29T13:27:29;50.44;44.90;64.94;;
75037;Laerm;64247;51.540;5.854;2023-05-29T13:29:31;50.50;46.04;61.56;;
75037;Laerm;64247;51.540;5.854;2023-05-29T13:31:32;50.75;45.12;61.12;;
75037;Laerm;64247;51.540;5.854;2023-05-29T13:33:33;50.62;44.78;68.98;;
75037;Laerm;64247;51.540;5.854;2023-05-29T13:35:33;50.94;45.58;61.20;;
75037;Laerm;64247;51.540;5.854;2023-05-29T13:37:36;49.84;45.23;59.87;;
75037;Laerm;64247;51.540;5.854;2023-05-29T13:39:37;52.95;45.81;71.46;;
75037;Laerm;64247;51.540;5.854;2023-05-29T13:41:38;53.84;45.73;69.99;;
75037;Laerm;64247;51.540;5.854;2023-05-29T13:43:39;53.29;45.85;70.52;;
75037;Laerm;64247;51.540;5.854;2023-05-29T13:45:40;50.60;45.55;64.94;;
75037;Laerm;64247;51.540;5.854;2023-05-29T13:47:41;53.82;46.50;69.31;;
75037;Laerm;64247;51.540;5.854;2023-05-29T13:49:42;53.01;45.60;70.33;;
75037;Laerm;64247;51.540;5.854;2023-05-29T13:51:43;55.90;45.73;67.42;;
75037;Laerm;64247;51.540;5.854;2023-05-29T13:53:47;54.86;45.07;70.65;;
75037;Laerm;64247;51.540;5.854;2023-05-29T13:55:47;62.93;51.55;77.69;;
75037;Laerm;64247;51.540;5.854;2023-05-29T13:57:48;64.12;52.02;72.90;;
75037;Laerm;64247;51.540;5.854;2023-05-29T13:59:49;65.81;56.65;76.61;;
75037;Laerm;64247;51.540;5.854;2023-05-29T14:01:51;62.12;55.95;72.27;;
75037;Laerm;64247;51.540;5.854;2023-05-29T14:03:52;52.42;48.95;65.54;;
75037;Laerm;64247;51.540;5.854;2023-05-29T14:05:53;51.64;48.43;59.50;;
75037;Laerm;64247;51.540;5.854;2023-05-29T14:07:53;52.19;46.84;59.52;;
75037;Laerm;64247;51.540;5.854;2023-05-29T14:09:54;56.65;46.73;74.14;;
75037;Laerm;64247;51.540;5.854;2023-05-29T14:11:58;57.44;46.32;73.41;;
75037;Laerm;64247;51.540;5.854;2023-05-29T14:13:59;55.13;45.58;70.10;;
75037;Laerm;64247;51.540;5.854;2023-05-29T14:16:00;51.85;45.28;67.67;;
75037;Laerm;64247;51.540;5.854;2023-05-29T14:18:01;48.03;45.43;56.08;;
75037;Laerm;64247;51.540;5.854;2023-05-29T14:22:09;54.44;44.96;70.94;;
75037;Laerm;64247;51.540;5.854;2023-05-29T14:24:12;54.98;47.99;68.69;;
75037;Laerm;64247;51.540;5.854;2023-05-29T14:26:14;55.21;47.48;66.28;;
75037;Laerm;64247;51.540;5.854;2023-05-29T14:28:15;67.45;50.89;78.28;;
75037;Laerm;64247;51.540;5.854;2023-05-29T14:30:15;54.51;50.29;62.23;;
75037;Laerm;64247;51.540;5.854;2023-05-29T14:32:16;56.57;51.50;64.15;;
75037;Laerm;64247;51.540;5.854;2023-05-29T14:34:17;58.13;50.53;74.65;;
75037;Laerm;64247;51.540;5.854;2023-05-29T14:36:18;65.05;51.56;81.09;;
75037;Laerm;64247;51.540;5.854;2023-05-29T14:38:19;68.84;45.28;79.86;;
75037;Laerm;64247;51.540;5.854;2023-05-29T14:40:20;52.77;45.63;66.61;;
75037;Laerm;64247;51.540;5.854;2023-05-29T14:42:21;50.17;45.11;62.10;;
75037;Laerm;64247;51.540;5.854;2023-05-29T14:44:22;50.27;44.96;60.83;;
75037;Laerm;64247;51.540;5.854;2023-05-29T14:46:23;50.09;45.53;60.32;;
75037;Laerm;64247;51.540;5.854;2023-05-29T14:48:24;51.20;45.93;70.50;;
75037;Laerm;64247;51.540;5.854;2023-05-29T14:50:25;50.47;46.20;62.64;;
75037;Laerm;64247;51.540;5.854;2023-05-29T14:52:26;54.21;45.18;70.88;;
75037;Laerm;64247;51.540;5.854;2023-05-29T14:54:27;53.34;44.53;69.53;;
75037;Laerm;64247;51.540;5.854;2023-05-29T14:56:28;52.29;44.48;64.54;;
75037;Laerm;64247;51.540;5.854;2023-05-29T14:58:29;49.42;44.24;59.87;;
75037;Laerm;64247;51.540;5.854;2023-05-29T15:00:31;48.33;45.13;57.08;;
75037;Laerm;64247;51.540;5.854;2023-05-29T15:02:32;48.87;44.87;63.67;;
75037;Laerm;64247;51.540;5.854;2023-05-29T15:04:33;55.84;45.04;75.99;;
75037;Laerm;64247;51.540;5.854;2023-05-29T15:06:34;54.49;45.61;69.74;;
75037;Laerm;64247;51.540;5.854;2023-05-29T15:08:34;51.79;44.67;65.41;;
75037;Laerm;64247;51.540;5.854;2023-05-29T15:10:36;50.95;44.87;62.46;;
75037;Laerm;64247;51.540;5.854;2023-05-29T15:12:36;50.28;45.44;59.00;;
75037;Laerm;64247;51.540;5.854;2023-05-29T15:14:37;51.85;45.60;64.95;;
75037;Laerm;64247;51.540;5.854;2023-05-29T15:16:38;54.92;45.63;70.54;;
75037;Laerm;64247;51.540;5.854;2023-05-29T15:18:39;53.50;45.56;68.81;;
75037;Laerm;64247;51.540;5.854;2023-05-29T15:20:40;53.48;45.48;68.55;;
75037;Laerm;64247;51.540;5.854;2023-05-29T15:22:41;49.96;44.94;64.92;;
75037;Laerm;64247;51.540;5.854;2023-05-29T15:24:42;50.54;45.51;59.52;;
75037;Laerm;64247;51.540;5.854;2023-05-29T15:26:43;52.73;45.99;68.52;;
75037;Laerm;64247;51.540;5.854;2023-05-29T15:28:44;51.55;46.28;61.74;;
75037;Laerm;64247;51.540;5.854;2023-05-29T15:30:45;51.27;45.51;66.73;;
75037;Laerm;64247;51.540;5.854;2023-05-29T15:32:46;52.98;45.79;66.96;;
75037;Laerm;64247;51.540;5.854;2023-05-29T15:34:47;51.75;45.14;66.71;;
75037;Laerm;64247;51.540;5.854;2023-05-29T15:36:48;51.97;46.40;66.70;;
75037;Laerm;64247;51.540;5.854;2023-05-29T15:38:49;49.44;45.87;61.89;;
75037;Laerm;64247;51.540;5.854;2023-05-29T15:40:50;50.07;45.48;61.01;;
75037;Laerm;64247;51.540;5.854;2023-05-29T15:42:51;50.95;45.33;63.48;;
75037;Laerm;64247;51.540;5.854;2023-05-29T15:44:52;52.20;45.57;64.35;;
75037;Laerm;64247;51.540;5.854;2023-05-29T15:46:53;53.98;46.59;67.23;;
75037;Laerm;64247;51.540;5.854;2023-05-29T15:48:54;52.30;45.97;64.81;;
75037;Laerm;64247;51.540;5.854;2023-05-29T15:50:55;53.58;45.86;67.76;;
75037;Laerm;64247;51.540;5.854;2023-05-29T15:52:56;53.63;44.75;69.67;;
75037;Laerm;64247;51.540;5.854;2023-05-29T15:54:57;54.71;44.58;68.36;;
75037;Laerm;64247;51.540;5.854;2023-05-29T15:56:57;54.75;45.34;69.35;;
75037;Laerm;64247;51.540;5.854;2023-05-29T15:59:02;54.70;45.77;72.92;;
75037;Laerm;64247;51.540;5.854;2023-05-29T16:01:05;59.67;45.78;76.62;;
75037;Laerm;64247;51.540;5.854;2023-05-29T16:03:06;49.08;45.03;60.26;;
75037;Laerm;64247;51.540;5.854;2023-05-29T16:05:08;47.45;44.63;54.09;;
75037;Laerm;64247;51.540;5.854;2023-05-29T16:07:10;54.29;45.20;66.59;;
75037;Laerm;64247;51.540;5.854;2023-05-29T16:09:10;55.49;46.53;68.86;;
75037;Laerm;64247;51.540;5.854;2023-05-29T16:11:12;55.87;46.56;69.53;;
75037;Laerm;64247;51.540;5.854;2023-05-29T16:13:13;52.59;46.79;68.38;;
75037;Laerm;64247;51.540;5.854;2023-05-29T16:15:15;52.87;45.97;67.22;;
75037;Laerm;64247;51.540;5.854;2023-05-29T16:17:16;50.53;44.30;62.30;;
75037;Laerm;64247;51.540;5.854;2023-05-29T16:19:17;52.33;44.70;63.11;;
75037;Laerm;64247;51.540;5.854;2023-05-29T16:21:19;50.66;45.10;64.45;;
75037;Laerm;64247;51.540;5.854;2023-05-29T16:23:20;50.48;46.07;64.02;;
75037;Laerm;64247;51.540;5.854;2023-05-29T16:25:21;50.67;45.67;66.10;;
75037;Laerm;64247;51.540;5.854;2023-05-29T16:27:22;51.25;45.26;65.71;;
75037;Laerm;64247;51.540;5.854;2023-05-29T16:29:23;50.27;44.42;69.87;;
75037;Laerm;64247;51.540;5.854;2023-05-29T16:31:25;51.33;45.19;69.12;;
75037;Laerm;64247;51.540;5.854;2023-05-29T16:33:26;50.92;45.39;64.70;;
75037;Laerm;64247;51.540;5.854;2023-05-29T16:35:27;48.84;45.03;60.10;;
75037;Laerm;64247;51.540;5.854;2023-05-29T16:37:28;48.83;44.95;55.64;;
75037;Laerm;64247;51.540;5.854;2023-05-29T16:39:29;49.46;45.16;64.39;;
75037;Laerm;64247;51.540;5.854;2023-05-29T16:41:32;49.64;44.53;68.09;;
75037;Laerm;64247;51.540;5.854;2023-05-29T16:43:33;50.44;45.63;65.15;;
75037;Laerm;64247;51.540;5.854;2023-05-29T16:45:34;53.62;45.79;74.72;;
75037;Laerm;64247;51.540;5.854;2023-05-29T16:47:35;53.91;45.20;67.26;;
75037;Laerm;64247;51.540;5.854;2023-05-29T16:49:36;51.59;45.99;66.29;;
75037;Laerm;64247;51.540;5.854;2023-05-29T16:51:37;52.25;45.20;68.39;;
75037;Laerm;64247;51.540;5.854;2023-05-29T16:53:38;48.38;44.15;63.75;;
75037;Laerm;64247;51.540;5.854;2023-05-29T16:55:40;51.29;45.53;61.17;;
75037;Laerm;64247;51.540;5.854;2023-05-29T16:57:41;50.96;45.41;62.78;;
75037;Laerm;64247;51.540;5.854;2023-05-29T16:59:43;51.97;44.89;66.94;;
75037;Laerm;64247;51.540;5.854;2023-05-29T17:01:44;54.45;45.37;67.77;;
75037;Laerm;64247;51.540;5.854;2023-05-29T17:03:44;52.86;44.54;65.69;;
75037;Laerm;64247;51.540;5.854;2023-05-29T17:05:45;51.38;44.43;66.09;;
75037;Laerm;64247;51.540;5.854;2023-05-29T17:07:47;49.27;45.05;61.59;;
75037;Laerm;64247;51.540;5.854;2023-05-29T17:09:47;52.35;45.52;67.41;;
75037;Laerm;64247;51.540;5.854;2023-05-29T17:11:49;52.35;45.30;69.70;;
75037;Laerm;64247;51.540;5.854;2023-05-29T17:13:50;50.97;44.81;65.66;;
75037;Laerm;64247;51.540;5.854;2023-05-29T17:15:51;49.20;45.78;59.04;;
75037;Laerm;64247;51.540;5.854;2023-05-29T17:17:51;49.34;45.00;62.83;;
75037;Laerm;64247;51.540;5.854;2023-05-29T17:19:54;52.27;45.09;65.95;;
75037;Laerm;64247;51.540;5.854;2023-05-29T17:21:55;57.66;44.95;72.45;;
75037;Laerm;64247;51.540;5.854;2023-05-29T17:23:56;49.13;44.97;59.27;;
75037;Laerm;64247;51.540;5.854;2023-05-29T17:25:57;48.51;45.29;61.64;;
75037;Laerm;64247;51.540;5.854;2023-05-29T17:27:58;49.99;45.28;64.87;;
75037;Laerm;64247;51.540;5.854;2023-05-29T17:30:01;49.97;45.20;61.42;;
75037;Laerm;64247;51.540;5.854;2023-05-29T17:32:02;52.95;44.79;70.21;;
75037;Laerm;64247;51.540;5.854;2023-05-29T17:34:03;54.14;45.09;68.61;;
75037;Laerm;64247;51.540;5.854;2023-05-29T17:36:04;50.68;45.46;64.62;;
75037;Laerm;64247;51.540;5.854;2023-05-29T17:38:05;49.10;44.97;60.66;;
75037;Laerm;64247;51.540;5.854;2023-05-29T17:40:07;51.47;46.18;64.97;;
75037;Laerm;64247;51.540;5.854;2023-05-29T17:42:08;51.04;45.52;63.99;;
75037;Laerm;64247;51.540;5.854;2023-05-29T17:44:09;49.58;44.66;61.96;;
75037;Laerm;64247;51.540;5.854;2023-05-29T17:46:10;50.30;44.52;61.01;;
75037;Laerm;64247;51.540;5.854;2023-05-29T17:48:11;50.20;45.15;60.33;;
75037;Laerm;64247;51.540;5.854;2023-05-29T17:50:12;48.24;45.01;59.78;;
75037;Laerm;64247;51.540;5.854;2023-05-29T17:52:13;50.30;44.50;66.12;;
75037;Laerm;64247;51.540;5.854;2023-05-29T17:54:14;48.83;44.51;64.44;;
75037;Laerm;64247;51.540;5.854;2023-05-29T17:56:14;48.42;44.75;63.14;;
75037;Laerm;64247;51.540;5.854;2023-05-29T17:58:15;48.50;45.27;55.76;;
75037;Laerm;64247;51.540;5.854;2023-05-29T18:00:17;47.91;44.91;55.26;;
75037;Laerm;64247;51.540;5.854;2023-05-29T18:02:18;47.31;44.58;60.48;;
75037;Laerm;64247;51.540;5.854;2023-05-29T18:04:19;48.94;44.45;62.08;;
75037;Laerm;64247;51.540;5.854;2023-05-29T18:06:20;50.73;45.09;64.64;;
75037;Laerm;64247;51.540;5.854;2023-05-29T18:08:21;50.43;44.79;61.39;;
75037;Laerm;64247;51.540;5.854;2023-05-29T18:10:22;56.51;45.88;74.14;;
75037;Laerm;64247;51.540;5.854;2023-05-29T18:12:23;48.07;45.91;57.78;;
75037;Laerm;64247;51.540;5.854;2023-05-29T18:14:24;48.26;45.40;59.97;;
75037;Laerm;64247;51.540;5.854;2023-05-29T18:16:28;48.56;46.11;57.23;;
75037;Laerm;64247;51.540;5.854;2023-05-29T18:18:37;49.26;45.51;64.76;;
75037;Laerm;64247;51.540;5.854;2023-05-29T18:20:38;49.99;45.45;60.25;;
75037;Laerm;64247;51.540;5.854;2023-05-29T18:22:39;52.26;45.65;65.60;;
75037;Laerm;64247;51.540;5.854;2023-05-29T18:24:40;52.80;45.85;66.71;;
75037;Laerm;64247;51.540;5.854;2023-05-29T18:26:41;52.97;45.81;65.60;;
75037;Laerm;64247;51.540;5.854;2023-05-29T18:28:43;53.16;45.39;63.91;;
75037;Laerm;64247;51.540;5.854;2023-05-29T18:30:44;51.82;45.04;66.11;;
75037;Laerm;64247;51.540;5.854;2023-05-29T18:32:45;51.68;44.49;65.17;;
75037;Laerm;64247;51.540;5.854;2023-05-29T18:34:46;50.53;45.45;61.41;;
75037;Laerm;64247;51.540;5.854;2023-05-29T18:36:47;53.27;45.41;71.64;;
75037;Laerm;64247;51.540;5.854;2023-05-29T18:38:48;51.67;45.20;67.79;;
75037;Laerm;64247;51.540;5.854;2023-05-29T18:40:51;49.29;45.00;63.25;;
75037;Laerm;64247;51.540;5.854;2023-05-29T18:42:52;50.21;45.11;66.06;;
75037;Laerm;64247;51.540;5.854;2023-05-29T18:44:54;50.87;44.89;65.28;;
75037;Laerm;64247;51.540;5.854;2023-05-29T18:46:56;51.17;44.95;67.22;;
75037;Laerm;64247;51.540;5.854;2023-05-29T18:48:58;50.02;45.18;64.75;;
75037;Laerm;64247;51.540;5.854;2023-05-29T18:50:58;50.39;45.08;62.44;;
75037;Laerm;64247;51.540;5.854;2023-05-29T18:53:01;49.49;44.31;62.79;;
75037;Laerm;64247;51.540;5.854;2023-05-29T18:55:02;48.75;44.18;60.96;;
75037;Laerm;64247;51.540;5.854;2023-05-29T18:57:04;49.54;44.70;60.42;;
75037;Laerm;64247;51.540;5.854;2023-05-29T18:59:08;50.74;44.07;62.80;;
75037;Laerm;64247;51.540;5.854;2023-05-29T19:01:08;62.10;44.42;85.23;;
75037;Laerm;64247;51.540;5.854;2023-05-29T19:03:10;58.71;45.01;79.00;;
75037;Laerm;64247;51.540;5.854;2023-05-29T19:05:11;52.62;44.66;77.27;;
75037;Laerm;64247;51.540;5.854;2023-05-29T19:07:13;61.75;44.58;84.75;;
75037;Laerm;64247;51.540;5.854;2023-05-29T19:09:14;55.38;44.40;68.69;;
75037;Laerm;64247;51.540;5.854;2023-05-29T19:11:15;53.95;45.13;68.82;;
75037;Laerm;64247;51.540;5.854;2023-05-29T19:13:16;54.36;45.15;68.55;;
75037;Laerm;64247;51.540;5.854;2023-05-29T19:15:17;49.04;45.25;66.31;;
75037;Laerm;64247;51.540;5.854;2023-05-29T19:17:18;50.60;45.42;63.65;;
75037;Laerm;64247;51.540;5.854;2023-05-29T19:19:19;52.36;45.46;72.45;;
75037;Laerm;64247;51.540;5.854;2023-05-29T19:21:20;51.33;44.73;62.66;;
75037;Laerm;64247;51.540;5.854;2023-05-29T19:23:21;52.17;45.25;62.84;;
75037;Laerm;64247;51.540;5.854;2023-05-29T19:25:22;52.25;45.32;70.32;;
75037;Laerm;64247;51.540;5.854;2023-05-29T19:27:23;54.66;45.65;68.45;;
75037;Laerm;64247;51.540;5.854;2023-05-29T19:29:24;49.79;45.66;60.90;;
75037;Laerm;64247;51.540;5.854;2023-05-29T19:31:25;55.03;45.68;72.29;;
75037;Laerm;64247;51.540;5.854;2023-05-29T19:33:26;55.78;45.90;69.77;;
75037;Laerm;64247;51.540;5.854;2023-05-29T19:35:27;55.74;45.90;69.77;;
75037;Laerm;64247;51.540;5.854;2023-05-29T19:37:29;55.83;46.10;73.88;;
75037;Laerm;64247;51.540;5.854;2023-05-29T19:39:30;52.99;45.87;67.31;;
75037;Laerm;64247;51.540;5.854;2023-05-29T19:41:33;49.70;45.48;63.56;;
75037;Laerm;64247;51.540;5.854;2023-05-29T19:43:36;49.73;45.62;61.71;;
75037;Laerm;64247;51.540;5.854;2023-05-29T19:45:37;51.19;45.57;67.99;;
75037;Laerm;64247;51.540;5.854;2023-05-29T19:47:38;54.98;45.90;69.53;;
75037;Laerm;64247;51.540;5.854;2023-05-29T19:49:39;49.25;45.42;65.32;;
75037;Laerm;64247;51.540;5.854;2023-05-29T19:51:40;49.73;45.55;69.00;;
75037;Laerm;64247;51.540;5.854;2023-05-29T19:53:41;51.65;44.39;77.70;;
75037;Laerm;64247;51.540;5.854;2023-05-29T19:55:42;48.51;44.41;72.02;;
75037;Laerm;64247;51.540;5.854;2023-05-29T19:57:43;55.26;44.37;75.21;;
75037;Laerm;64247;51.540;5.854;2023-05-29T19:59:45;68.43;44.82;92.27;;
75037;Laerm;64247;51.540;5.854;2023-05-29T20:01:48;47.08;44.95;51.74;;
75037;Laerm;64247;51.540;5.854;2023-05-29T20:03:49;47.60;45.00;62.76;;
75037;Laerm;64247;51.540;5.854;2023-05-29T20:05:51;47.29;44.92;51.28;;
75037;Laerm;64247;51.540;5.854;2023-05-29T20:07:52;47.08;44.59;52.18;;
75037;Laerm;64247;51.540;5.854;2023-05-29T20:09:57;47.24;44.66;53.06;;
75037;Laerm;64247;51.540;5.854;2023-05-29T20:11:58;47.41;45.05;51.37;;
75037;Laerm;64247;51.540;5.854;2023-05-29T20:13:58;47.41;44.94;53.21;;
75037;Laerm;64247;51.540;5.854;2023-05-29T20:16:00;47.67;45.15;56.51;;
75037;Laerm;64247;51.540;5.854;2023-05-29T20:18:01;47.87;45.38;58.23;;
75037;Laerm;64247;51.540;5.854;2023-05-29T20:20:02;54.23;46.37;72.31;;
75037;Laerm;64247;51.540;5.854;2023-05-29T20:22:04;54.46;46.41;75.86;;
75037;Laerm;64247;51.540;5.854;2023-05-29T20:24:06;48.03;45.70;54.48;;
75037;Laerm;64247;51.540;5.854;2023-05-29T20:26:09;48.99;45.82;57.18;;
75037;Laerm;64247;51.540;5.854;2023-05-29T20:28:10;47.14;44.88;51.72;;
75037;Laerm;64247;51.540;5.854;2023-05-29T20:30:11;47.34;44.97;63.50;;
75037;Laerm;64247;51.540;5.854;2023-05-29T20:32:12;47.03;44.96;54.71;;
75037;Laerm;64247;51.540;5.854;2023-05-29T20:34:13;46.78;44.92;48.48;;
75037;Laerm;64247;51.540;5.854;2023-05-29T20:36:14;46.76;44.61;48.53;;
75037;Laerm;64247;51.540;5.854;2023-05-29T20:38:15;46.82;44.72;48.51;;
75037;Laerm;64247;51.540;5.854;2023-05-29T20:40:16;47.35;45.26;62.75;;
75037;Laerm;64247;51.540;5.854;2023-05-29T20:42:17;48.00;45.50;55.80;;
75037;Laerm;64247;51.540;5.854;2023-05-29T20:44:22;51.20;45.62;62.90;;
75037;Laerm;64247;51.540;5.854;2023-05-29T20:46:29;48.19;45.50;57.02;;
75037;Laerm;64247;51.540;5.854;2023-05-29T20:48:31;48.44;45.55;56.57;;
75037;Laerm;64247;51.540;5.854;2023-05-29T20:50:32;49.12;45.57;65.87;;
75037;Laerm;64247;51.540;5.854;2023-05-29T20:52:33;46.72;44.64;52.12;;
75037;Laerm;64247;51.540;5.854;2023-05-29T20:54:33;46.83;44.66;53.06;;
75037;Laerm;64247;51.540;5.854;2023-05-29T20:56:34;47.67;44.75;53.91;;
75037;Laerm;64247;51.540;5.854;2023-05-29T20:58:35;47.17;45.07;51.19;;
75037;Laerm;64247;51.540;5.854;2023-05-29T21:00:36;46.46;44.23;50.08;;
75037;Laerm;64247;51.540;5.854;2023-05-29T21:02:39;46.72;44.51;49.15;;
75037;Laerm;64247;51.540;5.854;2023-05-29T21:04:40;46.71;44.21;53.94;;
75037;Laerm;64247;51.540;5.854;2023-05-29T21:06:41;46.42;44.42;49.89;;
75037;Laerm;64247;51.540;5.854;2023-05-29T21:08:42;47.07;43.61;58.10;;
75037;Laerm;64247;51.540;5.854;2023-05-29T21:10:44;47.21;45.34;57.39;;
75037;Laerm;64247;51.540;5.854;2023-05-29T21:12:46;47.43;45.29;50.77;;
75037;Laerm;64247;51.540;5.854;2023-05-29T21:14:46;47.99;45.37;51.17;;
75037;Laerm;64247;51.540;5.854;2023-05-29T21:16:47;48.38;45.34;55.81;;
75037;Laerm;64247;51.540;5.854;2023-05-29T21:18:48;47.46;45.59;49.82;;
75037;Laerm;64247;51.540;5.854;2023-05-29T21:20:49;47.68;45.36;57.25;;
75037;Laerm;64247;51.540;5.854;2023-05-29T21:22:50;48.58;45.37;57.07;;
75037;Laerm;64247;51.540;5.854;2023-05-29T21:24:52;47.52;45.56;52.27;;
75037;Laerm;64247;51.540;5.854;2023-05-29T21:26:52;47.55;45.31;51.58;;
75037;Laerm;64247;51.540;5.854;2023-05-29T21:28:53;47.65;45.30;56.05;;
75037;Laerm;64247;51.540;5.854;2023-05-29T21:30:54;47.32;45.52;50.27;;
75037;Laerm;64247;51.540;5.854;2023-05-29T21:32:55;47.45;45.42;57.19;;
75037;Laerm;64247;51.540;5.854;2023-05-29T21:34:56;47.39;45.25;55.30;;
75037;Laerm;64247;51.540;5.854;2023-05-29T21:36:58;47.62;45.94;55.27;;
75037;Laerm;64247;51.540;5.854;2023-05-29T21:38:59;47.71;45.46;56.29;;
75037;Laerm;64247;51.540;5.854;2023-05-29T21:41:00;48.22;45.53;65.67;;
75037;Laerm;64247;51.540;5.854;2023-05-29T21:43:01;47.73;45.70;56.66;;
75037;Laerm;64247;51.540;5.854;2023-05-29T21:45:03;47.98;45.74;63.08;;
75037;Laerm;64247;51.540;5.854;2023-05-29T21:47:04;47.39;45.25;67.02;;
75037;Laerm;64247;51.540;5.854;2023-05-29T21:49:05;47.39;45.45;50.70;;
75037;Laerm;64247;51.540;5.854;2023-05-29T21:51:06;47.43;45.42;51.32;;
75037;Laerm;64247;51.540;5.854;2023-05-29T21:53:07;46.97;44.99;50.39;;
75037;Laerm;64247;51.540;5.854;2023-05-29T21:55:08;47.09;44.15;51.75;;
75037;Laerm;64247;51.540;5.854;2023-05-29T21:57:14;47.16;45.08;50.19;;
75037;Laerm;64247;51.540;5.854;2023-05-29T21:59:15;47.35;45.19;49.90;;
75037;Laerm;64247;51.540;5.854;2023-05-29T22:01:16;47.79;45.53;50.37;;
75037;Laerm;64247;51.540;5.854;2023-05-29T22:03:17;47.97;46.02;53.49;;
75037;Laerm;64247;51.540;5.854;2023-05-29T22:05:19;47.81;45.63;50.33;;
75037;Laerm;64247;51.540;5.854;2023-05-29T22:07:20;49.12;45.47;55.10;;
75037;Laerm;64247;51.540;5.854;2023-05-29T22:09:23;49.75;46.71;63.42;;
75037;Laerm;64247;51.540;5.854;2023-05-29T22:11:25;48.76;46.72;54.01;;
75037;Laerm;64247;51.540;5.854;2023-05-29T22:13:26;47.68;45.92;49.58;;
75037;Laerm;64247;51.540;5.854;2023-05-29T22:15:30;47.71;45.75;50.44;;
75037;Laerm;64247;51.540;5.854;2023-05-29T22:17:31;47.98;46.22;50.18;;
75037;Laerm;64247;51.540;5.854;2023-05-29T22:19:33;48.10;46.12;65.47;;
75037;Laerm;64247;51.540;5.854;2023-05-29T22:21:36;48.65;46.64;52.10;;
75037;Laerm;64247;51.540;5.854;2023-05-29T22:23:36;48.04;45.85;51.19;;
75037;Laerm;64247;51.540;5.854;2023-05-29T22:25:37;48.95;46.28;61.41;;
75037;Laerm;64247;51.540;5.854;2023-05-29T22:27:39;48.02;46.09;51.77;;
75037;Laerm;64247;51.540;5.854;2023-05-29T22:29:40;48.63;45.89;55.75;;
75037;Laerm;64247;51.540;5.854;2023-05-29T22:31:41;48.14;46.11;60.20;;
75037;Laerm;64247;51.540;5.854;2023-05-29T22:33:43;48.58;46.23;58.41;;
75037;Laerm;64247;51.540;5.854;2023-05-29T22:35:44;48.08;46.38;52.53;;
75037;Laerm;64247;51.540;5.854;2023-05-29T22:37:46;47.99;46.05;52.55;;
75037;Laerm;64247;51.540;5.854;2023-05-29T22:39:47;48.55;46.12;58.87;;
75037;Laerm;64247;51.540;5.854;2023-05-29T22:41:48;48.33;46.44;51.09;;
75037;Laerm;64247;51.540;5.854;2023-05-29T22:43:49;48.55;46.27;53.88;;
75037;Laerm;64247;51.540;5.854;2023-05-29T22:45:51;48.07;46.15;57.39;;
75037;Laerm;64247;51.540;5.854;2023-05-29T22:47:52;49.41;47.36;53.49;;
75037;Laerm;64247;51.540;5.854;2023-05-29T22:49:52;50.08;48.28;59.19;;
75037;Laerm;64247;51.540;5.854;2023-05-29T22:51:53;49.93;47.85;60.56;;
75037;Laerm;64247;51.540;5.854;2023-05-29T22:53:54;50.09;47.56;65.92;;
75037;Laerm;64247;51.540;5.854;2023-05-29T22:55:56;49.57;47.45;54.52;;
75037;Laerm;64247;51.540;5.854;2023-05-29T22:57:57;49.24;47.41;50.88;;
75037;Laerm;64247;51.540;5.854;2023-05-29T22:59:58;49.60;47.74;51.90;;
75037;Laerm;64247;51.540;5.854;2023-05-29T23:01:59;49.86;47.85;52.34;;
75037;Laerm;64247;51.540;5.854;2023-05-29T23:04:00;49.93;47.74;59.57;;
75037;Laerm;64247;51.540;5.854;2023-05-29T23:06:01;49.72;47.45;52.80;;
75037;Laerm;64247;51.540;5.854;2023-05-29T23:08:02;49.37;47.09;51.33;;
75037;Laerm;64247;51.540;5.854;2023-05-29T23:10:08;49.58;47.78;54.66;;
75037;Laerm;64247;51.540;5.854;2023-05-29T23:12:10;50.08;48.17;55.22;;
75037;Laerm;64247;51.540;5.854;2023-05-29T23:14:11;49.94;47.68;52.76;;
75037;Laerm;64247;51.540;5.854;2023-05-29T23:16:12;47.47;45.33;51.48;;
75037;Laerm;64247;51.540;5.854;2023-05-29T23:18:12;47.24;45.40;50.47;;
75037;Laerm;64247;51.540;5.854;2023-05-29T23:20:13;47.45;45.50;49.71;;
75037;Laerm;64247;51.540;5.854;2023-05-29T23:22:14;47.30;45.24;64.37;;
75037;Laerm;64247;51.540;5.854;2023-05-29T23:24:15;47.12;45.07;51.93;;
75037;Laerm;64247;51.540;5.854;2023-05-29T23:26:16;47.26;45.42;49.22;;
75037;Laerm;64247;51.540;5.854;2023-05-29T23:28:17;47.20;45.07;49.02;;
75037;Laerm;64247;51.540;5.854;2023-05-29T23:30:19;47.08;45.16;51.64;;
75037;Laerm;64247;51.540;5.854;2023-05-29T23:32:22;47.19;45.16;49.25;;
75037;Laerm;64247;51.540;5.854;2023-05-29T23:34:22;47.17;45.25;50.89;;
75037;Laerm;64247;51.540;5.854;2023-05-29T23:36:23;46.92;45.02;60.04;;
75037;Laerm;64247;51.540;5.854;2023-05-29T23:38:25;47.19;45.13;49.75;;
75037;Laerm;64247;51.540;5.854;2023-05-29T23:40:25;47.25;45.14;58.65;;
75037;Laerm;64247;51.540;5.854;2023-05-29T23:42:26;46.85;44.83;53.82;;
75037;Laerm;64247;51.540;5.854;2023-05-29T23:44:27;46.96;44.87;49.14;;
75037;Laerm;64247;51.540;5.854;2023-05-29T23:46:28;47.09;45.38;48.98;;
75037;Laerm;64247;51.540;5.854;2023-05-29T23:48:30;46.75;45.20;48.85;;
75037;Laerm;64247;51.540;5.854;2023-05-29T23:50:30;46.92;45.17;48.97;;
75037;Laerm;64247;51.540;5.854;2023-05-29T23:52:31;46.76;44.92;48.59;;
75037;Laerm;64247;51.540;5.854;2023-05-29T23:54:32;46.63;44.72;49.81;;
75037;Laerm;64247;51.540;5.854;2023-05-29T23:56:34;46.41;44.67;48.38;;
75037;Laerm;64247;51.540;5.854;2023-05-29T23:58:34;46.45;44.62;48.93;;
